Time;durP1;ratioP1;P1;durP2;ratioP2;P2;SDS_P1;SDS_P2;PMS_P1;PMS_P2;Temp;Humidity;BMP_temperature;BMP_pressure;BME280_temperature;BME280_humidity;BME280_pressure;Samples;Min_cycle;Max_cycle;Signal;HPM_P1;HPM_P2
2022/05/24 00:01:03;;;;;;;0.95;0.90;;;;;;;;;;1816547;79;26306;-55
2022/05/24 00:03:31;;;;;;;1.00;1.00;;;;;;;;;;1799116;80;26344;-53
2022/05/24 00:05:59;;;;;;;1.02;1.02;;;;;;;;;;1799288;80;26900;-50
2022/05/24 00:08:27;;;;;;;1.00;1.00;;;;;;;;;;1800749;78;26739;-55
2022/05/24 00:10:54;;;;;;;1.10;1.10;;;;;;;;;;1804517;79;26915;-53
2022/05/24 00:13:22;;;;;;;1.00;1.00;;;;;;;;;;1803974;79;26293;-52
2022/05/24 00:15:49;;;;;;;1.10;1.10;;;;;;;;;;1778707;79;26714;-54
2022/05/24 00:18:18;;;;;;;0.98;0.98;;;;;;;;;;1795134;80;26364;-52
2022/05/24 00:20:50;;;;;;;0.90;0.90;;;;;;;;;;1781937;79;26288;-57
2022/05/24 00:23:18;;;;;;;1.00;1.00;;;;;;;;;;1798772;79;27405;-51
2022/05/24 00:25:47;;;;;;;0.93;0.93;;;;;;;;;;1801111;79;26749;-56
2022/05/24 00:28:15;;;;;;;1.00;1.00;;;;;;;;;;1800463;79;26351;-53
2022/05/24 00:30:44;;;;;;;1.00;1.00;;;;;;;;;;1798591;79;26229;-55
2022/05/24 00:33:11;;;;;;;1.10;1.10;;;;;;;;;;1818764;79;26781;-54
2022/05/24 00:35:39;;;;;;;0.95;0.95;;;;;;;;;;1820016;79;26286;-55
2022/05/24 00:38:08;;;;;;;0.90;0.90;;;;;;;;;;1820932;78;26297;-54
2022/05/24 00:40:49;;;;;;;1.00;1.00;;;;;;;;;;1827418;78;26293;-54
2022/05/24 00:43:30;;;;;;;0.90;0.90;;;;;;;;;;1830361;78;26375;-52
2022/05/24 00:45:59;;;;;;;1.00;1.00;;;;;;;;;;1827781;78;26894;-56
2022/05/24 00:48:30;;;;;;;1.10;1.10;;;;;;;;;;1780246;80;26913;-53
2022/05/24 00:50:59;;;;;;;0.80;0.80;;;;;;;;;;1802820;79;26738;-53
2022/05/24 00:53:28;;;;;;;1.17;1.17;;;;;;;;;;1796414;79;26332;-55
2022/05/24 00:56:06;;;;;;;0.90;0.90;;;;;;;;;;1809861;78;26293;-55
2022/05/24 00:58:41;;;;;;;1.00;1.00;;;;;;;;;;1790794;78;26318;-55
2022/05/24 01:01:10;;;;;;;1.02;1.02;;;;;;;;;;1802959;78;27346;-49
2022/05/24 01:03:37;;;;;;;1.10;1.10;;;;;;;;;;1804679;79;26313;-51
2022/05/24 01:06:04;;;;;;;1.10;1.10;;;;;;;;;;1807302;79;26305;-51
2022/05/24 01:08:32;;;;;;;1.00;1.00;;;;;;;;;;1808768;79;26702;-50
2022/05/24 01:11:01;;;;;;;0.90;0.90;;;;;;;;;;1815997;79;26323;-55
2022/05/24 01:13:30;;;;;;;1.00;1.00;;;;;;;;;;1815121;79;26264;-54
2022/05/24 01:15:58;;;;;;;1.00;1.00;;;;;;;;;;1815107;79;25346;-54
2022/05/24 01:18:25;;;;;;;1.00;1.00;;;;;;;;;;1803410;79;26300;-55
2022/05/24 01:20:54;;;;;;;1.00;1.00;;;;;;;;;;1784074;79;26325;-49
2022/05/24 01:23:23;;;;;;;1.10;1.10;;;;;;;;;;1790387;78;26298;-50
2022/05/24 01:25:55;;;;;;;1.00;1.00;;;;;;;;;;1809385;79;26769;-51
2022/05/24 01:28:35;;;;;;;0.90;0.90;;;;;;;;;;1809325;79;26301;-52
2022/05/24 01:31:03;;;;;;;0.90;0.90;;;;;;;;;;1807550;79;26371;-56
2022/05/24 01:36:17;;;;;;;0.88;0.88;;;;;;;;;;1815662;79;26351;-52
2022/05/24 01:38:46;;;;;;;0.88;0.88;;;;;;;;;;1793105;79;26701;-52
2022/05/24 01:41:15;;;;;;;0.90;0.90;;;;;;;;;;1779733;80;26319;-51
2022/05/24 01:43:43;;;;;;;1.00;1.00;;;;;;;;;;1780329;80;26375;-52
2022/05/24 01:46:11;;;;;;;0.80;0.80;;;;;;;;;;1786272;79;26351;-56
2022/05/24 01:48:41;;;;;;;0.90;0.90;;;;;;;;;;1804064;79;26285;-54
2022/05/24 01:51:10;;;;;;;0.90;0.90;;;;;;;;;;1803532;78;26769;-55
2022/05/24 01:53:41;;;;;;;1.00;1.00;;;;;;;;;;1804007;79;26313;-52
2022/05/24 01:56:09;;;;;;;1.00;1.00;;;;;;;;;;1787638;79;26325;-52
2022/05/24 01:58:38;;;;;;;0.80;0.80;;;;;;;;;;1782713;78;27441;-53
2022/05/24 02:01:09;;;;;;;0.93;0.93;;;;;;;;;;1789586;78;26292;-51
2022/05/24 02:03:37;;;;;;;0.95;0.95;;;;;;;;;;1774838;81;26753;-56
2022/05/24 02:06:24;;;;;;;1.00;1.00;;;;;;;;;;1775094;81;26666;-52
2022/05/24 02:08:53;;;;;;;0.90;0.90;;;;;;;;;;1801659;78;26372;-50
2022/05/24 02:11:23;;;;;;;1.00;1.00;;;;;;;;;;1826860;78;26302;-50
2022/05/24 02:13:52;;;;;;;0.90;0.90;;;;;;;;;;1820865;78;26336;-53
2022/05/24 02:16:22;;;;;;;1.00;1.00;;;;;;;;;;1829273;78;26272;-56
2022/05/24 02:18:50;;;;;;;0.88;0.88;;;;;;;;;;1803783;78;26316;-52
2022/05/24 02:21:18;;;;;;;0.80;0.80;;;;;;;;;;1787591;79;26697;-55
2022/05/24 02:23:48;;;;;;;1.07;1.07;;;;;;;;;;1783406;79;26367;-56
2022/05/24 02:26:17;;;;;;;0.93;0.93;;;;;;;;;;1774991;81;26324;-56
2022/05/24 02:28:44;;;;;;;0.90;0.90;;;;;;;;;;1774918;81;26304;-56
2022/05/24 02:31:13;;;;;;;0.90;0.90;;;;;;;;;;1780994;78;26331;-54
2022/05/24 02:33:41;;;;;;;1.05;1.05;;;;;;;;;;1825996;78;26703;-55
2022/05/24 02:36:08;;;;;;;0.90;0.90;;;;;;;;;;1826245;78;26389;-54
2022/05/24 02:38:36;;;;;;;1.00;1.00;;;;;;;;;;1796005;78;26304;-56
2022/05/24 02:43:49;;;;;;;0.82;0.82;;;;;;;;;;1804122;79;26754;-53
2022/05/24 02:46:17;;;;;;;0.90;0.90;;;;;;;;;;1775313;79;26889;-55
2022/05/24 02:48:44;;;;;;;0.80;0.80;;;;;;;;;;1771998;79;26332;-57
2022/05/24 02:51:13;;;;;;;0.80;0.80;;;;;;;;;;1800729;79;26313;-55
2022/05/24 02:53:41;;;;;;;0.90;0.90;;;;;;;;;;1800506;79;26242;-53
2022/05/24 02:56:09;;;;;;;1.07;1.07;;;;;;;;;;1782155;79;26343;-54
2022/05/24 02:58:36;;;;;;;0.95;0.95;;;;;;;;;;1776524;78;26740;-51
2022/05/24 03:01:05;;;;;;;1.20;1.20;;;;;;;;;;1810810;79;26332;-53
2022/05/24 03:03:32;;;;;;;0.90;0.90;;;;;;;;;;1799047;80;26321;-57
2022/05/24 03:05:59;;;;;;;0.90;0.90;;;;;;;;;;1799094;80;26313;-57
2022/05/24 03:11:11;;;;;;;1.00;1.00;;;;;;;;;;1780013;79;26626;-52
2022/05/24 03:16:24;;;;;;;0.95;0.95;;;;;;;;;;1819797;79;26334;-52
2022/05/24 03:18:51;;;;;;;1.85;1.00;;;;;;;;;;1809147;79;27332;-52
2022/05/24 03:21:19;;;;;;;1.00;0.90;;;;;;;;;;1799083;79;26284;-51
2022/05/24 03:23:46;;;;;;;0.90;0.90;;;;;;;;;;1797595;80;26332;-55
2022/05/24 03:26:14;;;;;;;0.93;0.93;;;;;;;;;;1801500;78;26355;-56
2022/05/24 03:28:43;;;;;;;1.00;1.00;;;;;;;;;;1800705;79;26261;-52
2022/05/24 03:31:10;;;;;;;0.88;0.88;;;;;;;;;;1802763;79;27249;-55
2022/05/24 03:33:38;;;;;;;0.80;0.80;;;;;;;;;;1820059;79;26331;-54
2022/05/24 03:36:06;;;;;;;0.80;0.80;;;;;;;;;;1779477;78;26253;-56
2022/05/24 03:38:33;;;;;;;0.98;0.98;;;;;;;;;;1795334;79;26530;-52
2022/05/24 03:41:01;;;;;;;0.90;0.90;;;;;;;;;;1799280;80;26371;-55
2022/05/24 03:43:28;;;;;;;1.00;1.00;;;;;;;;;;1799478;79;26336;-52
2022/05/24 03:46:03;;;;;;;0.85;0.85;;;;;;;;;;1800900;77;26908;-55
2022/05/24 03:48:30;;;;;;;1.05;1.05;;;;;;;;;;1794843;80;26298;-56
2022/05/24 03:50:58;;;;;;;0.88;0.88;;;;;;;;;;1823050;78;26742;-56
2022/05/24 03:53:26;;;;;;;1.05;1.05;;;;;;;;;;1805591;78;26287;-55
2022/05/24 03:55:53;;;;;;;0.88;0.88;;;;;;;;;;1798466;78;26699;-55
2022/05/24 03:58:21;;;;;;;0.80;0.80;;;;;;;;;;1795346;78;26847;-55
2022/05/24 04:00:48;;;;;;;1.22;1.12;;;;;;;;;;1820421;78;26255;-56
2022/05/24 04:03:16;;;;;;;0.85;0.85;;;;;;;;;;1793306;80;26314;-53
2022/05/24 04:05:46;;;;;;;0.80;0.80;;;;;;;;;;1793090;80;26757;-54
2022/05/24 04:08:15;;;;;;;0.90;0.90;;;;;;;;;;1796113;78;26380;-53
2022/05/24 04:10:42;;;;;;;3.50;1.00;;;;;;;;;;1822408;79;26330;-53
2022/05/24 04:13:10;;;;;;;0.90;0.90;;;;;;;;;;1822396;79;26275;-55
2022/05/24 04:15:37;;;;;;;0.80;0.80;;;;;;;;;;1822517;79;26357;-54
2022/05/24 04:18:04;;;;;;;0.80;0.80;;;;;;;;;;1797423;79;26293;-54
2022/05/24 04:20:32;;;;;;;1.52;1.00;;;;;;;;;;1770197;80;25917;-52
2022/05/24 04:22:59;;;;;;;1.00;0.90;;;;;;;;;;1790896;80;26277;-53
2022/05/24 04:25:27;;;;;;;1.00;1.00;;;;;;;;;;1787040;78;26262;-56
2022/05/24 04:27:54;;;;;;;1.07;1.07;;;;;;;;;;1798920;78;27599;-49
2022/05/24 04:30:22;;;;;;;1.00;1.00;;;;;;;;;;1794921;80;26320;-53
2022/05/24 04:32:49;;;;;;;0.90;0.90;;;;;;;;;;1811723;79;26441;-53
2022/05/24 04:35:16;;;;;;;0.80;0.80;;;;;;;;;;1794929;80;26844;-51
2022/05/24 04:37:44;;;;;;;0.93;0.93;;;;;;;;;;1787442;78;26422;-52
2022/05/24 04:40:12;;;;;;;1.00;1.00;;;;;;;;;;1786489;78;26286;-52
2022/05/24 04:42:39;;;;;;;0.82;0.82;;;;;;;;;;1794861;80;26825;-55
2022/05/24 04:45:08;;;;;;;1.00;1.00;;;;;;;;;;1794224;80;26316;-51
2022/05/24 04:47:36;;;;;;;0.93;0.93;;;;;;;;;;1823559;78;26259;-53
2022/05/24 04:50:05;;;;;;;1.27;1.00;;;;;;;;;;1830854;78;26724;-54
2022/05/24 04:52:34;;;;;;;0.98;0.98;;;;;;;;;;1830838;78;26807;-49
2022/05/24 04:55:02;;;;;;;0.93;0.93;;;;;;;;;;1813787;78;26794;-52
2022/05/24 04:57:29;;;;;;;0.98;0.98;;;;;;;;;;1797774;78;26289;-51
2022/05/24 04:59:56;;;;;;;0.93;0.93;;;;;;;;;;1811236;78;26356;-55
2022/05/24 05:02:24;;;;;;;10.55;2.40;;;;;;;;;;1796682;78;26325;-52
2022/05/24 05:04:51;;;;;;;1.10;1.10;;;;;;;;;;1793934;80;26286;-54
2022/05/24 05:07:23;;;;;;;1.00;1.00;;;;;;;;;;1791603;78;26289;-54
2022/05/24 05:09:49;;;;;;;1.25;1.25;;;;;;;;;;1795640;78;26342;-50
2022/05/24 05:12:17;;;;;;;1.20;1.20;;;;;;;;;;1793191;78;26354;-55
2022/05/24 05:14:45;;;;;;;1.10;1.00;;;;;;;;;;1791874;78;26317;-53
2022/05/24 05:17:15;;;;;;;2.87;1.07;;;;;;;;;;1794326;78;26282;-50
2022/05/24 05:19:42;;;;;;;1.20;1.10;;;;;;;;;;1786756;78;26305;-53
2022/05/24 05:22:09;;;;;;;2.60;0.95;;;;;;;;;;1793033;80;26750;-53
2022/05/24 05:24:37;;;;;;;1.12;1.12;;;;;;;;;;1799281;78;26718;-51
2022/05/24 05:27:04;;;;;;;1.75;1.00;;;;;;;;;;1794428;78;26305;-56
2022/05/24 05:32:18;;;;;;;1.07;1.00;;;;;;;;;;1801569;78;26409;-54
2022/05/24 05:34:47;;;;;;;0.95;0.95;;;;;;;;;;1794780;78;27057;-55
2022/05/24 05:37:15;;;;;;;1.10;1.10;;;;;;;;;;1792659;78;26286;-54
2022/05/24 05:39:42;;;;;;;1.67;1.10;;;;;;;;;;1806811;78;26749;-49
2022/05/24 05:42:10;;;;;;;0.90;0.90;;;;;;;;;;1794555;80;26355;-51
2022/05/24 05:44:38;;;;;;;1.00;1.00;;;;;;;;;;1793481;78;26802;-54
2022/05/24 05:47:06;;;;;;;1.20;1.10;;;;;;;;;;1795155;79;26360;-52
2022/05/24 05:49:33;;;;;;;1.22;1.22;;;;;;;;;;1804907;78;26792;-53
2022/05/24 05:52:01;;;;;;;1.35;1.25;;;;;;;;;;1799884;78;26229;-55
2022/05/24 05:54:28;;;;;;;1.20;1.20;;;;;;;;;;1798290;78;26325;-55
2022/05/24 05:56:56;;;;;;;1.50;1.40;;;;;;;;;;1802757;78;27616;-53
2022/05/24 05:59:23;;;;;;;1.25;1.25;;;;;;;;;;1804357;78;26395;-51
2022/05/24 06:01:50;;;;;;;1.57;1.35;;;;;;;;;;1793706;79;26343;-53
2022/05/24 06:04:17;;;;;;;2.47;2.05;;;;;;;;;;1804016;78;26273;-54
2022/05/24 06:06:45;;;;;;;3.12;1.42;;;;;;;;;;1802318;79;26372;-51
2022/05/24 06:09:13;;;;;;;1.40;1.40;;;;;;;;;;1808130;78;26387;-49
2022/05/24 06:11:41;;;;;;;3.58;1.65;;;;;;;;;;1807113;78;26379;-52
2022/05/24 06:14:09;;;;;;;1.80;1.30;;;;;;;;;;1805105;78;26301;-55
2022/05/24 06:16:37;;;;;;;1.25;1.20;;;;;;;;;;1802212;79;26316;-55
2022/05/24 06:19:05;;;;;;;1.32;1.22;;;;;;;;;;1803618;78;26274;-54
2022/05/24 06:21:36;;;;;;;2.05;1.22;;;;;;;;;;1804095;78;26682;-53
2022/05/24 06:24:04;;;;;;;3.33;1.50;;;;;;;;;;1800241;78;26742;-55
2022/05/24 06:26:32;;;;;;;1.45;1.25;;;;;;;;;;1802394;78;26859;-50
2022/05/24 06:29:01;;;;;;;2.37;1.25;;;;;;;;;;1802805;78;26419;-55
2022/05/24 06:31:28;;;;;;;3.65;1.45;;;;;;;;;;1806484;78;26259;-55
2022/05/24 06:33:56;;;;;;;1.32;1.32;;;;;;;;;;1803581;78;26379;-52
2022/05/24 06:36:23;;;;;;;1.40;1.30;;;;;;;;;;1804733;78;26760;-53
2022/05/24 06:38:51;;;;;;;1.10;1.10;;;;;;;;;;1800527;78;26366;-54
2022/05/24 06:41:18;;;;;;;1.30;1.20;;;;;;;;;;1803758;79;26729;-54
2022/05/24 06:43:45;;;;;;;2.42;1.30;;;;;;;;;;1797277;78;26874;-51
2022/05/24 06:46:12;;;;;;;1.50;1.40;;;;;;;;;;1803123;78;26328;-53
2022/05/24 06:48:41;;;;;;;1.40;1.40;;;;;;;;;;1799427;78;26321;-51
2022/05/24 06:51:11;;;;;;;1.20;1.20;;;;;;;;;;1792973;80;26380;-52
2022/05/24 06:53:39;;;;;;;2.30;1.42;;;;;;;;;;1799954;78;26352;-51
2022/05/24 06:56:08;;;;;;;1.30;1.20;;;;;;;;;;1794062;78;26387;-55
2022/05/24 06:58:36;;;;;;;1.50;1.50;;;;;;;;;;1797447;78;26708;-54
2022/05/24 07:03:50;;;;;;;1.20;1.20;;;;;;;;;;1790047;80;26337;-55
2022/05/24 07:06:18;;;;;;;1.30;1.30;;;;;;;;;;1793759;80;26292;-53
2022/05/24 07:08:46;;;;;;;1.25;1.25;;;;;;;;;;1794355;79;26275;-53
2022/05/24 07:11:15;;;;;;;1.45;1.37;;;;;;;;;;1794416;79;26348;-54
2022/05/24 07:13:42;;;;;;;1.47;1.37;;;;;;;;;;1794024;80;27479;-55
2022/05/24 07:16:10;;;;;;;1.35;1.30;;;;;;;;;;1794371;80;26297;-55
2022/05/24 07:18:38;;;;;;;1.20;1.20;;;;;;;;;;1793884;80;26293;-54
2022/05/24 07:21:06;;;;;;;1.57;1.27;;;;;;;;;;1793857;80;26290;-52
2022/05/24 07:23:37;;;;;;;2.05;1.37;;;;;;;;;;1794296;80;26278;-55
2022/05/24 07:26:04;;;;;;;1.10;1.10;;;;;;;;;;1793779;79;26376;-55
2022/05/24 07:28:32;;;;;;;1.30;1.30;;;;;;;;;;1778228;80;26361;-56
2022/05/24 07:30:59;;;;;;;1.20;1.20;;;;;;;;;;1794412;78;26598;-50
2022/05/24 07:33:27;;;;;;;1.30;1.20;;;;;;;;;;1794561;79;26879;-51
2022/05/24 07:35:54;;;;;;;1.47;1.20;;;;;;;;;;1794249;78;26794;-54
2022/05/24 07:38:22;;;;;;;2.20;1.15;;;;;;;;;;1791145;80;26548;-54
2022/05/24 07:46:20;;;;;;;1.15;1.15;;;;;;;;;;1791993;80;26351;-51
2022/05/24 07:48:47;;;;;;;1.15;1.15;;;;;;;;;;1796789;79;26410;-51
2022/05/24 07:51:14;;;;;;;1.40;1.30;;;;;;;;;;1800577;79;26285;-52
2022/05/24 07:53:41;;;;;;;1.12;1.12;;;;;;;;;;1800745;79;26242;-53
2022/05/24 07:56:09;;;;;;;1.40;1.30;;;;;;;;;;1800713;79;26387;-51
2022/05/24 07:58:37;;;;;;;1.40;1.30;;;;;;;;;;1801204;78;26313;-53
2022/05/24 08:01:04;;;;;;;1.07;1.07;;;;;;;;;;1800618;79;26316;-51
2022/05/24 08:03:31;;;;;;;1.30;1.30;;;;;;;;;;1799023;80;26314;-50
2022/05/24 08:05:59;;;;;;;1.25;1.25;;;;;;;;;;1798194;80;26237;-52
2022/05/24 08:08:27;;;;;;;1.30;1.30;;;;;;;;;;1798951;78;26321;-54
2022/05/24 08:10:54;;;;;;;1.20;1.20;;;;;;;;;;1800525;78;26454;-54
2022/05/24 08:13:22;;;;;;;1.20;1.20;;;;;;;;;;1800174;78;26290;-54
2022/05/24 08:15:54;;;;;;;1.20;1.20;;;;;;;;;;1800666;78;26648;-52
2022/05/24 08:18:23;;;;;;;1.22;1.22;;;;;;;;;;1798345;79;26741;-55
2022/05/24 08:20:50;;;;;;;1.30;1.30;;;;;;;;;;1797220;80;26775;-52
2022/05/24 08:23:18;;;;;;;1.07;1.07;;;;;;;;;;1771581;81;26316;-55
2022/05/24 08:25:46;;;;;;;1.30;1.30;;;;;;;;;;1771675;81;26759;-55
2022/05/24 08:28:13;;;;;;;2.15;1.35;;;;;;;;;;1771507;81;26284;-53
2022/05/24 08:30:41;;;;;;;1.10;1.10;;;;;;;;;;1771718;81;26331;-57
2022/05/24 08:33:10;;;;;;;1.27;1.20;;;;;;;;;;1809106;79;26262;-54
2022/05/24 08:35:38;;;;;;;1.10;1.10;;;;;;;;;;1807578;78;26282;-55
2022/05/24 08:38:06;;;;;;;1.20;1.10;;;;;;;;;;1809447;78;26359;-52
2022/05/24 08:40:37;;;;;;;1.12;1.12;;;;;;;;;;1807337;78;26730;-53
2022/05/24 08:43:24;;;;;;;1.67;1.20;;;;;;;;;;1800174;79;26265;-57
2022/05/24 08:48:52;;;;;;;1.17;1.17;;;;;;;;;;1801117;78;26397;-54
2022/05/24 08:51:33;;;;;;;1.35;1.30;;;;;;;;;;1796916;80;26270;-54
2022/05/24 08:54:02;;;;;;;1.20;1.20;;;;;;;;;;1716475;80;26286;-54
2022/05/24 08:56:34;;;;;;;1.12;1.12;;;;;;;;;;1794385;80;26974;-53
2022/05/24 08:59:06;;;;;;;1.20;1.20;;;;;;;;;;1797146;78;25788;-52
2022/05/24 09:01:33;;;;;;;1.10;1.10;;;;;;;;;;1794047;80;26679;-56
2022/05/24 09:04:01;;;;;;;1.30;1.25;;;;;;;;;;1794517;80;26681;-53
2022/05/24 09:06:34;;;;;;;1.45;1.37;;;;;;;;;;1794712;80;26848;-51
2022/05/24 09:09:06;;;;;;;1.10;1.10;;;;;;;;;;1794181;79;26820;-56
2022/05/24 09:11:41;;;;;;;1.15;1.10;;;;;;;;;;1796575;79;26910;-51
2022/05/24 09:14:11;;;;;;;1.85;1.12;;;;;;;;;;1793915;80;26224;-55
2022/05/24 09:16:57;;;;;;;1.27;1.27;;;;;;;;;;1794543;80;26427;-55
2022/05/24 09:19:30;;;;;;;1.10;1.10;;;;;;;;;;1704167;83;26353;-52
2022/05/24 09:21:57;;;;;;;1.40;1.30;;;;;;;;;;1703531;82;26338;-52
2022/05/24 09:24:44;;;;;;;1.10;1.10;;;;;;;;;;1738101;80;26282;-53
2022/05/24 09:27:13;;;;;;;1.40;1.30;;;;;;;;;;1794321;80;26294;-54
2022/05/24 09:30:00;;;;;;;1.05;1.05;;;;;;;;;;1793969;80;26379;-52
2022/05/24 09:32:29;;;;;;;1.22;1.00;;;;;;;;;;1794680;79;26297;-55
2022/05/24 09:35:04;;;;;;;1.17;1.17;;;;;;;;;;1799402;78;26297;-50
2022/05/24 09:37:32;;;;;;;1.10;1.10;;;;;;;;;;1794624;78;26289;-56
2022/05/24 09:40:01;;;;;;;0.90;0.90;;;;;;;;;;1795605;78;26813;-54
2022/05/24 09:42:30;;;;;;;1.20;1.10;;;;;;;;;;1794383;80;26379;-51
2022/05/24 09:44:59;;;;;;;4.28;1.20;;;;;;;;;;1794460;80;26306;-55
2022/05/24 09:47:40;;;;;;;1.22;1.02;;;;;;;;;;1794099;80;26871;-52
2022/05/24 09:50:18;;;;;;;1.10;1.10;;;;;;;;;;1794848;79;26322;-55
2022/05/24 09:52:47;;;;;;;1.10;1.10;;;;;;;;;;1801402;78;26675;-53
2022/05/24 09:55:15;;;;;;;1.17;1.17;;;;;;;;;;1781425;79;26316;-55
2022/05/24 09:57:44;;;;;;;1.20;1.20;;;;;;;;;;1798841;78;26388;-54
2022/05/24 10:00:20;;;;;;;1.40;1.30;;;;;;;;;;1801881;78;26300;-55
2022/05/24 10:02:45;;;;;;;1.20;1.20;;;;;;;;;;1799895;78;26309;-52
2022/05/24 10:05:17;;;;;;;1.17;1.17;;;;;;;;;;1800701;79;26379;-56
2022/05/24 10:07:46;;;;;;;1.30;1.30;;;;;;;;;;1799074;78;26318;-52
2022/05/24 10:10:16;;;;;;;1.20;1.20;;;;;;;;;;1799826;78;26309;-53
2022/05/24 10:12:50;;;;;;;1.30;1.27;;;;;;;;;;1792945;79;26886;-54
2022/05/24 10:15:25;;;;;;;1.32;1.30;;;;;;;;;;1799588;79;26301;-52
2022/05/24 10:17:57;;;;;;;1.17;1.17;;;;;;;;;;1799754;79;26314;-51
2022/05/24 10:20:32;;;;;;;1.20;1.20;;;;;;;;;;1799699;79;26805;-55
2022/05/24 10:23:04;;;;;;;1.42;1.25;;;;;;;;;;1793608;79;26363;-53
2022/05/24 10:25:36;;;;;;;1.30;1.30;;;;;;;;;;1800674;79;26773;-52
2022/05/24 10:28:20;;;;;;;1.17;1.17;;;;;;;;;;1800530;79;26340;-54
2022/05/24 10:30:49;;;;;;;1.60;1.22;;;;;;;;;;1800240;79;26651;-54
2022/05/24 10:39:07;;;;;;;1.35;1.25;;;;;;;;;;1800235;79;26345;-56
2022/05/24 10:41:41;;;;;;;1.20;1.20;;;;;;;;;;1800734;79;26285;-54
2022/05/24 10:44:16;;;;;;;1.25;1.20;;;;;;;;;;1800375;79;27014;-53
2022/05/24 10:46:48;;;;;;;1.27;1.25;;;;;;;;;;1800437;79;26287;-53
2022/05/24 10:49:22;;;;;;;1.32;1.22;;;;;;;;;;1799353;77;26317;-54
2022/05/24 10:51:52;;;;;;;1.35;1.35;;;;;;;;;;1794630;79;26271;-51
2022/05/24 10:54:39;;;;;;;1.30;1.30;;;;;;;;;;1792304;80;27227;-51
2022/05/24 10:57:17;;;;;;;1.62;1.52;;;;;;;;;;1794090;80;26309;-53
2022/05/24 11:00:03;;;;;;;1.10;1.10;;;;;;;;;;1792943;78;26293;-55
2022/05/24 11:02:51;;;;;;;1.30;1.30;;;;;;;;;;1790073;80;26300;-52
2022/05/24 11:05:31;;;;;;;1.60;1.50;;;;;;;;;;1794298;80;26364;-53
2022/05/24 11:08:18;;;;;;;1.45;1.45;;;;;;;;;;1789109;79;26334;-52
2022/05/24 11:10:48;;;;;;;1.32;1.32;;;;;;;;;;1794084;80;26322;-51
2022/05/24 11:13:19;;;;;;;1.42;1.42;;;;;;;;;;1805131;79;26267;-54
2022/05/24 11:15:48;;;;;;;1.30;1.30;;;;;;;;;;1794907;79;26313;-52
2022/05/24 11:18:17;;;;;;;1.30;1.30;;;;;;;;;;1793187;80;26361;-56
2022/05/24 11:20:46;;;;;;;1.30;1.30;;;;;;;;;;1793748;79;26539;-53
2022/05/24 11:23:15;;;;;;;1.45;1.45;;;;;;;;;;1794028;80;26761;-52
2022/05/24 11:25:44;;;;;;;1.50;1.40;;;;;;;;;;1792853;80;26313;-54
2022/05/24 11:28:19;;;;;;;3.60;1.42;;;;;;;;;;1794146;79;26379;-55
2022/05/24 11:30:46;;;;;;;1.50;1.37;;;;;;;;;;1788892;79;26306;-52
2022/05/24 11:33:30;;;;;;;1.32;1.32;;;;;;;;;;1799058;79;26314;-52
2022/05/24 11:35:59;;;;;;;1.30;1.30;;;;;;;;;;1794010;80;26788;-56
2022/05/24 11:38:31;;;;;;;1.30;1.30;;;;;;;;;;1789127;78;26914;-55
2022/05/24 11:41:02;;;;;;;1.40;1.40;;;;;;;;;;1803920;78;26841;-55
2022/05/24 11:43:39;;;;;;;1.40;1.40;;;;;;;;;;1793949;80;26798;-51
2022/05/24 11:46:08;;;;;;;1.50;1.50;;;;;;;;;;1793840;78;26364;-54
2022/05/24 11:48:45;;;;;;;1.72;1.62;;;;;;;;;;1799253;78;26687;-55
2022/05/24 11:51:31;;;;;;;1.45;1.45;;;;;;;;;;1791117;78;26392;-54
2022/05/24 11:54:00;;;;;;;1.27;1.20;;;;;;;;;;1793749;78;26305;-55
2022/05/24 11:56:29;;;;;;;1.40;1.40;;;;;;;;;;1794701;80;26426;-53
2022/05/24 11:58:58;;;;;;;2.05;1.47;;;;;;;;;;1797134;78;26287;-56
2022/05/24 12:01:26;;;;;;;1.47;1.37;;;;;;;;;;1791555;78;26271;-54
2022/05/24 12:09:52;;;;;;;1.57;1.47;;;;;;;;;;1793426;79;26826;-53
2022/05/24 12:12:21;;;;;;;1.50;1.50;;;;;;;;;;1761859;79;26409;-56
2022/05/24 12:14:50;;;;;;;2.00;1.50;;;;;;;;;;1793747;80;26591;-52
2022/05/24 12:17:19;;;;;;;1.70;1.60;;;;;;;;;;1790578;80;26423;-54
2022/05/24 12:19:48;;;;;;;1.60;1.60;;;;;;;;;;1792414;80;26226;-54
2022/05/24 12:22:20;;;;;;;1.60;1.50;;;;;;;;;;1791934;80;26324;-52
2022/05/24 12:24:49;;;;;;;1.60;1.50;;;;;;;;;;1794501;80;26780;-52
2022/05/24 12:27:21;;;;;;;1.40;1.40;;;;;;;;;;1793029;80;26290;-54
2022/05/24 12:29:50;;;;;;;1.70;1.60;;;;;;;;;;1794850;80;26278;-51
2022/05/24 12:32:19;;;;;;;1.70;1.60;;;;;;;;;;1808989;79;26380;-51
2022/05/24 12:34:46;;;;;;;1.60;1.50;;;;;;;;;;1808683;79;26320;-54
2022/05/24 12:37:21;;;;;;;1.60;1.50;;;;;;;;;;1794488;78;26321;-53
2022/05/24 12:40:04;;;;;;;1.67;1.57;;;;;;;;;;1796853;80;26290;-53
2022/05/24 12:42:32;;;;;;;1.60;1.50;;;;;;;;;;1796684;80;26384;-50
2022/05/24 12:45:02;;;;;;;2.10;1.70;;;;;;;;;;1796558;80;26738;-54
2022/05/24 12:47:29;;;;;;;1.55;1.55;;;;;;;;;;1795140;80;26234;-53
2022/05/24 12:49:58;;;;;;;1.60;1.50;;;;;;;;;;1794313;80;26376;-55
2022/05/24 12:52:27;;;;;;;1.52;1.47;;;;;;;;;;1789664;78;26309;-53
2022/05/24 12:54:58;;;;;;;1.70;1.60;;;;;;;;;;1794594;80;26689;-52
2022/05/24 12:57:30;;;;;;;1.62;1.52;;;;;;;;;;1794866;80;28043;-55
2022/05/24 12:59:59;;;;;;;1.55;1.40;;;;;;;;;;1798130;78;26452;-52
2022/05/24 13:02:37;;;;;;;1.57;1.57;;;;;;;;;;1794549;80;26270;-52
2022/05/24 13:05:09;;;;;;;1.50;1.50;;;;;;;;;;1794660;80;26317;-54
2022/05/24 13:07:40;;;;;;;1.50;1.40;;;;;;;;;;1790142;80;26320;-53
2022/05/24 13:10:09;;;;;;;1.45;1.45;;;;;;;;;;1790521;80;26338;-55
2022/05/24 13:12:37;;;;;;;1.40;1.40;;;;;;;;;;1794502;79;26285;-53
2022/05/24 13:15:06;;;;;;;2.15;1.50;;;;;;;;;;1794534;80;26774;-53
2022/05/24 13:17:35;;;;;;;1.60;1.40;;;;;;;;;;1794812;80;26286;-56
2022/05/24 13:20:03;;;;;;;1.77;1.67;;;;;;;;;;1798122;78;26297;-52
2022/05/24 13:22:48;;;;;;;2.35;1.52;;;;;;;;;;1794286;80;26259;-54
2022/05/24 13:25:19;;;;;;;1.60;1.50;;;;;;;;;;1794242;80;26606;-54
2022/05/24 13:27:51;;;;;;;1.98;1.87;;;;;;;;;;1794689;80;26750;-53
2022/05/24 13:35:52;;;;;;;1.52;1.52;;;;;;;;;;1789686;80;26746;-53
2022/05/24 13:38:27;;;;;;;1.45;1.45;;;;;;;;;;1794746;78;26371;-53
2022/05/24 13:40:55;;;;;;;2.37;1.72;;;;;;;;;;1795053;78;26282;-51
2022/05/24 13:43:39;;;;;;;2.00;1.60;;;;;;;;;;1794276;80;26290;-51
2022/05/24 13:46:19;;;;;;;1.85;1.60;;;;;;;;;;1794433;80;26321;-54
2022/05/24 13:48:53;;;;;;;1.77;1.70;;;;;;;;;;1794506;78;26765;-55
2022/05/24 13:51:21;;;;;;;1.60;1.50;;;;;;;;;;1789261;77;26372;-53
2022/05/24 13:53:49;;;;;;;1.77;1.67;;;;;;;;;;1793869;80;26876;-55
2022/05/24 13:56:20;;;;;;;1.85;1.75;;;;;;;;;;1794587;80;26772;-51
2022/05/24 13:58:49;;;;;;;2.77;1.60;;;;;;;;;;1799461;78;26341;-55
2022/05/24 14:01:28;;;;;;;1.80;1.70;;;;;;;;;;1794397;80;26863;-53
2022/05/24 14:04:13;;;;;;;1.60;1.60;;;;;;;;;;1794599;80;26297;-56
2022/05/24 14:06:42;;;;;;;1.85;1.60;;;;;;;;;;1794645;80;26308;-55
2022/05/24 14:09:09;;;;;;;1.70;1.60;;;;;;;;;;1793776;78;26340;-56
2022/05/24 14:11:38;;;;;;;2.10;1.70;;;;;;;;;;1794737;79;26409;-57
2022/05/24 14:14:05;;;;;;;1.62;1.50;;;;;;;;;;1793298;80;26789;-54
2022/05/24 14:16:33;;;;;;;1.67;1.57;;;;;;;;;;1794643;79;26958;-54
2022/05/24 14:19:00;;;;;;;1.70;1.70;;;;;;;;;;1794485;80;26285;-56
2022/05/24 14:21:29;;;;;;;1.70;1.60;;;;;;;;;;1794323;80;26285;-55
2022/05/24 14:23:57;;;;;;;1.75;1.50;;;;;;;;;;1790199;80;26297;-52
2022/05/24 14:26:25;;;;;;;1.50;1.50;;;;;;;;;;1794685;80;26024;-54
2022/05/24 14:28:52;;;;;;;1.52;1.52;;;;;;;;;;1794585;78;26848;-55
2022/05/24 14:31:21;;;;;;;1.70;1.60;;;;;;;;;;1798271;79;26329;-53
2022/05/24 14:33:49;;;;;;;1.85;1.75;;;;;;;;;;1793992;80;26317;-56
2022/05/24 14:36:16;;;;;;;1.65;1.60;;;;;;;;;;1794506;80;26840;-54
2022/05/24 14:38:46;;;;;;;1.98;1.87;;;;;;;;;;1790841;80;26753;-52
2022/05/24 14:41:22;;;;;;;1.40;1.40;;;;;;;;;;1794668;80;26277;-54
2022/05/24 14:43:51;;;;;;;1.57;1.50;;;;;;;;;;1794731;80;26567;-53
2022/05/24 14:46:19;;;;;;;1.60;1.60;;;;;;;;;;1794599;80;26305;-56
2022/05/24 14:48:47;;;;;;;1.57;1.52;;;;;;;;;;1794352;80;26827;-53
2022/05/24 14:51:16;;;;;;;1.47;1.47;;;;;;;;;;1788698;79;26356;-55
2022/05/24 14:53:43;;;;;;;1.80;1.70;;;;;;;;;;1794674;80;27453;-54
2022/05/24 14:56:11;;;;;;;1.60;1.60;;;;;;;;;;1799849;78;26313;-55
2022/05/24 14:58:38;;;;;;;1.70;1.60;;;;;;;;;;1799268;78;26679;-53
2022/05/24 15:01:05;;;;;;;1.70;1.70;;;;;;;;;;1794763;80;26733;-53
2022/05/24 15:03:33;;;;;;;1.55;1.45;;;;;;;;;;1794614;80;26788;-56
2022/05/24 15:06:00;;;;;;;2.02;1.80;;;;;;;;;;1794438;80;26766;-56
2022/05/24 15:16:49;;;;;;;2.45;1.65;;;;;;;;;;1792599;80;26344;-53
2022/05/24 15:19:13;;;;;;;1.60;1.60;;;;;;;;;;1793747;80;26297;-52
2022/05/24 15:21:43;;;;;;;1.82;1.72;;;;;;;;;;1794123;80;26333;-56
2022/05/24 15:24:11;;;;;;;1.77;1.65;;;;;;;;;;1793993;80;26282;-55
2022/05/24 15:26:40;;;;;;;1.70;1.60;;;;;;;;;;1794167;80;27393;-53
2022/05/24 15:29:08;;;;;;;1.80;1.52;;;;;;;;;;1794410;78;26348;-54
2022/05/24 15:31:36;;;;;;;1.82;1.72;;;;;;;;;;1799659;78;27527;-55
2022/05/24 15:34:04;;;;;;;3.50;1.70;;;;;;;;;;1797955;78;26324;-54
2022/05/24 15:36:31;;;;;;;1.80;1.70;;;;;;;;;;1799729;78;26320;-56
2022/05/24 15:38:58;;;;;;;1.77;1.67;;;;;;;;;;1791106;80;26676;-50
2022/05/24 15:41:27;;;;;;;4.17;1.70;;;;;;;;;;1794410;80;26254;-51
2022/05/24 15:43:57;;;;;;;3.77;1.77;;;;;;;;;;1794413;80;26286;-54
2022/05/24 15:46:24;;;;;;;2.75;1.80;;;;;;;;;;1794412;80;26379;-55
2022/05/24 15:48:52;;;;;;;4.60;1.80;;;;;;;;;;1794604;78;26667;-53